Terminal Aerodrome Forecast
Issued by NWS

Home | Current Version | Previous Version | Text Only | Print | Product List | Glossary On
Versions: 1 2 3 4 5 6 7 8 9 10 11 12 13 14 15 16 17 18 19 20 21 22 23 24 25 26 27 28 29 30 31 32 33 34 35 36
000
FTAK31 PANC 230532
TAFASN
TAF
PASN 230532Z 2306/2406 28040G55KT 6SM -SN BKN025 BKN035
      TEMPO 2306/2310 4SM -SN SCT025 BKN035
     FM231000 30050G60KT 3SM -SN BKN015 OVC025
     FM231800 32035G45KT 6SM -SHSN BKN040
     FM240000 32025G35KT P6SM -SHSN BKN040=

USA.gov is the U.S. government's official web portal to all federal, state and local government web resources and services.